메인 페이지
METAR-TAF:

METAR-TAF

공항 :

런던 개트윅 공항

런던 / 개트윅, 잉글랜드

위도: 51-09N, 경도: 000-11W, 고도: 62m

현재 날씨관측

예보는 30분 전, 03:50시(UTC)에 발표되었습니다.
5kt
온도 11°C
습도 82%
기압 1015 hPa
시정 10km 이상
고도 4000ft 상공 구름 조금

METAR: EGKK 130350Z 26005KT 9999 FEW040 11/08 Q1015

시각: 05:20 (04:20 UTC)

예보

예보는 5 시간 24분 전, 22:56시(UTC)에 발표되었습니다.
예보 대상 시간: 13일 00시부터 14일 06시까지 (UTC)
북북서5kt
시정 10km 이상
고도 3000ft 상공 구름 보통
확률 40% :
일시적
13일 03시부터 13일 09시까지 (UTC)
시정: 8000m
고도 1200ft 상공 구름 많음
약한비
전환 중
13일 14시부터 13일 17시까지 (UTC)
서남서10kt
일시적
13일 14시부터 13일 20시까지 (UTC)
시정: 6000m
소나기
전환 중
13일 18시부터 13일 21시까지 (UTC)
여러 방향의 바람 3kt
전환 중
14일 00시부터 14일 03시까지 (UTC)
시정: 7000m
확률 40%
14일 02시부터 14일 06시까지 (UTC)
시정: 4000m
박무,

TAF: EGKK 122256Z 1300/1406 33005KT 9999 SCT030 PROB40 TEMPO 1303/1309 8000 -RA BKN012 BECMG 1314/1317 25010KT TEMPO 1314/1320 6000 SHRA BECMG 1318/1321 VRB03KT BECMG 1400/1403 7000 PROB40 1402/1406 4000 BR

4,000개 이상의 공항 관측 자료 및 예보 (METAR 및 TAF 보고).

지도상에서 검색 가능한 기상관측소가 노란 점과 빨간 점으로 표시되어 있습니다.

기상관측소 명을 보려면 표시 위로 마우스를 이동하세요.

날씨 관측과 예보를 보려면 클릭하세요.

지도 변경 : 확대하려면 엑스 표시가 있는 녹색 버튼, 축소하려면 빼기 표시가 있는 녹색 버튼, 다음 페이지의 지도를 보려면 녹색 화살표를 클릭하세요.


METAR-TAF: